Aeroporto :







RITROVATECI SU...

 
LOGIN :

Iscrizione | Disclaimer

   EN    FR    IT 

 









Sommario :    VFR   VFR Marginale   IFR   IFR Intensivo   IFR Molto Intensivo
Visibilità : 
Base nubi : 
>= 8 km
>= 3000ft
5 / 8 km
1000 / 3000 ft
1500m / 5 km
500 / 1000 ft
800 / 1500m
200 / 500 ft
< 800m
< 200 ft
Simboli :   Temporali  Nebbia  Neve Forte  Precipitazioni Forti  Vento > 20 kt






- Altitudine del aeroporto : 23 ft
- Codice IATA : STT


TIST - King

ULTIMO METAR :
  • 021053Z 09007KT 10SM CLR 28/23 A3002 RMK AO2 SLP166 T02780228 PNO

METARs OBSOLETI :
  • 020953Z AUTO 00000KT 10SM CLR 27/23 A3001 RMK AO2 SLP161 T02670228 PNO
  • 020853Z AUTO 08004KT 10SM CLR 27/22 A2999 RMK AO2 SLP157 6//// T02670222 55000 PNO

TAF TIST
Valido dal 02 a 06 ore il 03 a 06 ore UTC


020533Z 0206/0306 08008KT P6SM VCSH FEW025 SCT050
FM021300 11013KT P6SM SCT030
FM022300 07008KT P6SM FEW025
FIR TJZS / America del Nord



MetMap, La meteo Aeronautica in un colpo d'occhio ! - Copyright ORBIFLY Dicembre 2007 - Disclaimer

ORBIFLY MET'MAP TEAM :

Programmazione e sviluppo : Alexandra Zaïnal
Concezione : Baudouin d'Aumeries
Aiuto per la programmazione : Marc-Olivier Méhu
Supporto tecnico e logistico : Manuel Goepfert
Aiuto per la traduzione : Arnaldo La Scala

Contatto : metmap@orbifly.com




FONTI E CREDITI :

   NOAA